createdAt,value
2018-02-10T00:01:38.658Z,101029.91
2018-02-10T00:04:04.951Z,101025.17
2018-02-10T00:06:30.911Z,101020.24
2018-02-10T00:08:56.922Z,101032.56
2018-02-10T00:11:22.724Z,101024.13
2018-02-10T00:13:48.562Z,101026.91
2018-02-10T00:16:14.549Z,101030.61
2018-02-10T00:18:40.701Z,101032.70
2018-02-10T00:21:06.482Z,101034.45
2018-02-10T00:23:33.178Z,101036.28
2018-02-10T00:25:58.962Z,101036.45
2018-02-10T00:28:25.298Z,101039.61
2018-02-10T00:30:51.100Z,101036.71
2018-02-10T00:33:18.025Z,101043.23
2018-02-10T00:35:43.806Z,101041.28
2018-02-10T00:38:10.091Z,101035.48
2018-02-10T00:40:35.895Z,101038.73
2018-02-10T00:43:02.313Z,101035.47
2018-02-10T00:45:28.650Z,101037.73
2018-02-10T00:47:54.561Z,101028.02
2018-02-10T00:50:21.176Z,101034.47
2018-02-10T00:52:46.975Z,101035.28
2018-02-10T00:55:14.811Z,101042.62
2018-02-10T00:57:41.545Z,101032.97
2018-02-10T01:00:07.368Z,101029.39
2018-02-10T01:02:33.681Z,101036.91
2018-02-10T01:04:59.458Z,101033.13
2018-02-10T01:07:26.034Z,101036.80
2018-02-10T01:09:51.821Z,101036.63
2018-02-10T01:12:18.374Z,101036.61
2018-02-10T01:14:44.182Z,101035.98
2018-02-10T01:17:11.231Z,101032.54
2018-02-10T01:19:37.296Z,101032.97
2018-02-10T01:22:03.660Z,101033.28
2018-02-10T01:24:29.752Z,101030.69
2018-02-10T01:26:55.571Z,101030.48
2018-02-10T01:29:21.377Z,101030.07
2018-02-10T01:31:47.627Z,101023.55
2018-02-10T01:34:13.421Z,101024.44
2018-02-10T01:36:39.745Z,101023.64
2018-02-10T01:39:05.521Z,101023.42
2018-02-10T01:41:31.874Z,101019.64
2018-02-10T01:43:57.685Z,101018.78
2018-02-10T01:46:24.905Z,101016.89
2018-02-10T01:48:50.802Z,101020.46
2018-02-10T01:51:17.022Z,101016.29
2018-02-10T01:53:42.806Z,101015.56
2018-02-10T01:56:09.401Z,101017.79
2018-02-10T01:58:35.712Z,101019.89
2018-02-10T02:01:01.667Z,101016.61
2018-02-10T02:03:27.458Z,101017.92
2018-02-10T02:05:53.876Z,101014.50
2018-02-10T02:08:19.661Z,101011.78
2018-02-10T02:10:45.759Z,101009.58
2018-02-10T02:13:11.574Z,101009.61
2018-02-10T02:15:38.187Z,101011.48
2018-02-10T02:18:04.018Z,101015.70
2018-02-10T02:20:30.226Z,101021.60
2018-02-10T02:22:56.001Z,101019.02
2018-02-10T02:25:23.003Z,101019.17
2018-02-10T02:27:48.833Z,101020.51
2018-02-10T02:30:14.971Z,101018.86
2018-02-10T02:32:40.751Z,101015.56
2018-02-10T02:35:07.699Z,101010.94
2018-02-10T02:37:33.539Z,101023.09
2018-02-10T02:39:59.905Z,101010.08
2018-02-10T02:42:25.780Z,101009.03
2018-02-10T02:44:51.652Z,101002.86
2018-02-10T02:47:17.414Z,100994.60
2018-02-10T02:49:43.994Z,100995.79
2018-02-10T02:52:09.786Z,100990.97
2018-02-10T02:54:35.802Z,100987.57
2018-02-10T02:57:01.622Z,100986.14
2018-02-10T02:59:27.394Z,100994.21
2018-02-10T03:01:53.173Z,100990.75
2018-02-10T03:04:19.062Z,100987.39
2018-02-10T03:06:44.841Z,100985.47
2018-02-10T03:09:10.608Z,100990.11
2018-02-10T03:11:36.414Z,101002.34
2018-02-10T03:14:02.208Z,100992.35
2018-02-10T03:16:27.982Z,101001.32
2018-02-10T03:18:53.817Z,101002.23
2018-02-10T03:21:19.598Z,100995.28
2018-02-10T03:23:45.370Z,100995.43
2018-02-10T03:26:11.146Z,100996.16
2018-02-10T03:28:36.935Z,101001.42
2018-02-10T03:31:02.757Z,100999.50
2018-02-10T03:33:28.525Z,100999.97
2018-02-10T03:35:54.310Z,101006.87
2018-02-10T03:38:20.101Z,101005.70
2018-02-10T03:40:45.873Z,101007.11
2018-02-10T03:43:11.689Z,101010.13
2018-02-10T03:45:37.489Z,101009.58
2018-02-10T03:48:03.273Z,101006.73
2018-02-10T03:50:29.053Z,101002.97
2018-02-10T03:52:55.005Z,101009.40
2018-02-10T03:55:20.775Z,101009.89
2018-02-10T03:57:46.556Z,101011.33
2018-02-10T04:00:12.357Z,101009.58
2018-02-10T04:02:38.129Z,101007.29
2018-02-10T04:05:03.898Z,101013.86
2018-02-10T04:07:29.798Z,101012.11
2018-02-10T04:09:55.565Z,101011.59
2018-02-10T04:12:21.337Z,101008.81
2018-02-10T04:14:47.133Z,101011.48
2018-02-10T04:17:12.922Z,101017.20
2018-02-10T04:19:38.785Z,101018.59
2018-02-10T04:22:04.591Z,101018.54
2018-02-10T04:24:30.376Z,101011.98
2018-02-10T04:26:56.161Z,101025.38
2018-02-10T04:29:21.954Z,101019.07
2018-02-10T04:31:47.736Z,101020.48
2018-02-10T04:34:13.505Z,101021.06
2018-02-10T04:36:39.534Z,101028.69
2018-02-10T04:39:05.317Z,101026.64
2018-02-10T04:41:31.088Z,101027.20
2018-02-10T04:43:56.872Z,101027.34
2018-02-10T04:46:22.643Z,101020.48
2018-02-10T04:48:48.426Z,101026.70
2018-02-10T04:51:14.210Z,101027.83
2018-02-10T04:53:39.981Z,101026.70
2018-02-10T04:56:05.750Z,101035.48
2018-02-10T04:58:31.542Z,101040.45
2018-02-10T05:00:57.367Z,101046.09
2018-02-10T05:03:23.128Z,101045.92
2018-02-10T05:05:49.143Z,101045.30
2018-02-10T05:08:14.920Z,101045.73
2018-02-10T05:10:40.685Z,101043.41
2018-02-10T05:13:06.478Z,101049.36
2018-02-10T05:15:32.250Z,101051.47
2018-02-10T05:17:58.062Z,101046.56
2018-02-10T05:20:23.870Z,101054.33
2018-02-10T05:22:49.681Z,101055.00
2018-02-10T05:25:15.440Z,101057.48
2018-02-10T05:27:41.237Z,101059.73
2018-02-10T05:30:07.027Z,101053.45
2018-02-10T05:32:32.805Z,101060.14
2018-02-10T05:34:58.863Z,101047.29
2018-02-10T05:37:24.644Z,101045.83
2018-02-10T05:39:50.405Z,101044.41
2018-02-10T05:42:16.193Z,101042.30
2018-02-10T05:44:41.966Z,101041.04
2018-02-10T05:47:07.729Z,101040.48
2018-02-10T05:49:33.517Z,101033.27
2018-02-10T05:51:59.289Z,101032.25
2018-02-10T05:54:25.062Z,101038.80
2018-02-10T05:56:50.862Z,101033.63
2018-02-10T05:59:16.642Z,101035.73
2018-02-10T06:01:42.656Z,101034.59
2018-02-10T06:04:08.439Z,101039.70
2018-02-10T06:06:34.217Z,101050.64
2018-02-10T06:08:59.998Z,101055.31
2018-02-10T06:11:25.772Z,101056.14
2018-02-10T06:13:51.550Z,101053.69
2018-02-10T06:16:17.352Z,101053.71
2018-02-10T06:18:43.123Z,101058.41
2018-02-10T06:21:08.902Z,101051.52
2018-02-10T06:23:34.918Z,101055.71
2018-02-10T06:26:00.695Z,101060.66
2018-02-10T06:28:26.458Z,101060.41
2018-02-10T06:30:52.368Z,101059.59
2018-02-10T06:33:18.139Z,101058.67
2018-02-10T06:35:43.913Z,101058.20
2018-02-10T06:38:09.706Z,101052.69
2018-02-10T06:40:35.514Z,101057.17
2018-02-10T06:43:01.318Z,101062.59
2018-02-10T06:45:27.111Z,101054.98
2018-02-10T06:47:52.881Z,101057.97
2018-02-10T06:50:18.662Z,101048.98
2018-02-10T06:52:44.454Z,101050.27
2018-02-10T06:55:10.229Z,101039.40
2018-02-10T06:57:35.998Z,101047.05
2018-02-10T07:00:01.842Z,101043.59
2018-02-10T07:02:27.621Z,101041.05
2018-02-10T07:04:53.401Z,101044.98
2018-02-10T07:07:19.187Z,101057.78
2018-02-10T07:09:44.960Z,101055.39
2018-02-10T07:12:10.729Z,101048.27
2018-02-10T07:14:36.522Z,101045.27
2018-02-10T07:17:02.320Z,101045.38
2018-02-10T07:19:28.106Z,101052.00
2018-02-10T07:21:54.095Z,101046.13
2018-02-10T07:24:19.858Z,101047.40
2018-02-10T07:26:45.638Z,101046.84
2018-02-10T07:29:11.430Z,101053.79
2018-02-10T07:31:37.197Z,101054.19
2018-02-10T07:34:02.994Z,101055.37
2018-02-10T07:36:28.800Z,101053.92
2018-02-10T07:38:54.594Z,101053.34
2018-02-10T07:41:20.373Z,101052.77
2018-02-10T07:43:46.394Z,101043.98
2018-02-10T07:46:12.185Z,101049.45
2018-02-10T07:48:37.955Z,101048.48
2018-02-10T07:51:04.873Z,101052.89
2018-02-10T07:53:30.648Z,101052.45
2018-02-10T07:55:56.421Z,101055.73
2018-02-10T07:58:22.223Z,101046.84
2018-02-10T08:00:48.014Z,101049.45
2018-02-10T08:03:13.799Z,101041.70
2018-02-10T08:05:39.789Z,101038.91
2018-02-10T08:08:05.577Z,101036.75
2018-02-10T08:10:31.358Z,101038.57
2018-02-10T08:12:58.133Z,101038.81
2018-02-10T08:15:23.897Z,101040.40
2018-02-10T08:17:49.675Z,101039.81
2018-02-10T08:20:15.834Z,101041.21
2018-02-10T08:22:41.606Z,101034.94
2018-02-10T08:25:07.380Z,101036.73
2018-02-10T08:27:33.167Z,101011.50
2018-02-10T08:29:58.936Z,101035.24
2018-02-10T08:32:24.746Z,101023.50
2018-02-10T08:34:50.871Z,101023.78
2018-02-10T08:37:16.649Z,101023.13
2018-02-10T08:39:42.422Z,101036.07
2018-02-10T08:42:08.294Z,101044.30
2018-02-10T08:44:34.081Z,101036.47
2018-02-10T08:46:59.843Z,101038.94
2018-02-10T08:49:25.625Z,101043.80
2018-02-10T08:51:51.399Z,101038.33
2018-02-10T08:54:17.196Z,101037.10
2018-02-10T08:56:42.988Z,101048.73
2018-02-10T08:59:08.781Z,101039.82
2018-02-10T09:01:34.725Z,101039.34
2018-02-10T09:04:00.771Z,101041.86
2018-02-10T09:06:26.546Z,101048.15
2018-02-10T09:08:52.326Z,101042.22
2018-02-10T09:11:18.147Z,101046.63
2018-02-10T09:13:43.966Z,101039.22
2018-02-10T09:16:10.843Z,101040.33
2018-02-10T09:18:36.698Z,101039.17
2018-02-10T09:21:02.891Z,101036.66
2018-02-10T09:23:28.675Z,101031.66
2018-02-10T09:25:55.423Z,101029.89
2018-02-10T09:28:21.267Z,101036.73
2018-02-10T09:30:47.796Z,101032.09
2018-02-10T09:33:13.607Z,101034.91
2018-02-10T09:35:40.166Z,101037.02
2018-02-10T09:38:06.012Z,101028.91
2018-02-10T09:40:32.752Z,101042.32
2018-02-10T09:42:58.539Z,101039.34
2018-02-10T09:45:24.397Z,101043.82
2018-02-10T09:47:52.818Z,101046.42
2018-02-10T09:50:18.593Z,101053.47
2018-02-10T09:52:44.917Z,101052.48
2018-02-10T09:55:10.721Z,101055.38
2018-02-10T09:57:37.127Z,101050.62
2018-02-10T10:00:02.951Z,101044.13
2018-02-10T10:02:29.744Z,101045.72
2018-02-10T10:04:55.578Z,101036.94
2018-02-10T10:07:22.385Z,101040.58
2018-02-10T10:09:48.445Z,101036.00
2018-02-10T10:12:14.719Z,101047.55
2018-02-10T10:14:40.566Z,101038.70
2018-02-10T10:17:06.329Z,101050.33
2018-02-10T10:19:32.121Z,101046.92
2018-02-10T10:21:58.229Z,101041.08
2018-02-10T10:24:23.998Z,101035.36
2018-02-10T10:26:49.784Z,101036.61
2018-02-10T10:29:15.770Z,101031.01
2018-02-10T10:31:41.548Z,101031.84
2018-02-10T10:34:07.829Z,101029.53
2018-02-10T10:36:34.780Z,101024.69
2018-02-10T10:39:01.235Z,101020.75
2018-02-10T10:41:27.270Z,101031.97
2018-02-10T10:43:53.125Z,101027.77
2018-02-10T10:46:19.134Z,101037.41
2018-02-10T10:48:44.946Z,101035.23
2018-02-10T10:51:10.939Z,101039.84
2018-02-10T10:53:36.904Z,101035.97
2018-02-10T10:56:02.713Z,101025.91
2018-02-10T10:58:28.524Z,101024.25
2018-02-10T11:00:54.468Z,101015.97
2018-02-10T11:03:20.246Z,101022.67
2018-02-10T11:05:46.330Z,101020.97
2018-02-10T11:08:12.100Z,101018.80
2018-02-10T11:10:37.967Z,101022.84
2018-02-10T11:13:03.775Z,101032.55
2018-02-10T11:15:29.669Z,101027.51
2018-02-10T11:17:55.445Z,101020.06
2018-02-10T11:20:21.656Z,101012.17
2018-02-10T11:22:47.455Z,101016.99
2018-02-10T11:25:13.237Z,101017.88
2018-02-10T11:27:39.040Z,101025.16
2018-02-10T11:30:04.895Z,101016.61
2018-02-10T11:32:30.754Z,101013.21
2018-02-10T11:34:56.586Z,101006.52
2018-02-10T11:37:22.383Z,100999.06
2018-02-10T11:39:48.193Z,101002.84
2018-02-10T11:42:14.018Z,100998.83
2018-02-10T11:44:39.805Z,101007.00
2018-02-10T11:47:05.907Z,101003.22
2018-02-10T11:49:31.998Z,101005.27
2018-02-10T11:51:57.743Z,101006.98
2018-02-10T11:54:23.541Z,101002.22
2018-02-10T11:56:49.339Z,100994.00
2018-02-10T11:59:15.347Z,100992.14
2018-02-10T12:01:41.148Z,100993.61
2018-02-10T12:04:07.008Z,100997.47
2018-02-10T12:06:32.922Z,100997.20
2018-02-10T12:08:58.803Z,100995.29
2018-02-10T12:11:24.587Z,100993.66
2018-02-10T12:13:50.359Z,100988.80
2018-02-10T12:16:16.506Z,100976.70
2018-02-10T12:18:42.678Z,100970.58
2018-02-10T12:21:08.457Z,100963.88
2018-02-10T12:23:34.262Z,100963.78
2018-02-10T12:26:00.054Z,100959.28
2018-02-10T12:28:26.062Z,100958.17
2018-02-10T12:30:51.882Z,100952.27
2018-02-10T12:33:17.689Z,100956.50
2018-02-10T12:35:43.476Z,100949.22
2018-02-10T12:38:09.497Z,100942.44
2018-02-10T12:40:35.632Z,100938.97
2018-02-10T12:43:01.668Z,100933.30
2018-02-10T12:45:27.457Z,100933.64
2018-02-10T12:47:59.501Z,100935.63
2018-02-10T12:50:25.576Z,100924.02
2018-02-10T12:52:51.375Z,100922.34
2018-02-10T12:55:17.164Z,100926.39
2018-02-10T12:57:43.036Z,100920.88
2018-02-10T13:00:08.875Z,100917.02
2018-02-10T13:02:34.930Z,100911.00
2018-02-10T13:05:00.743Z,100921.49
2018-02-10T13:07:26.558Z,100909.89
2018-02-10T13:09:52.343Z,100911.23
2018-02-10T13:12:18.128Z,100922.72
2018-02-10T13:14:44.045Z,100925.80
2018-02-10T13:17:09.873Z,100918.77
2018-02-10T13:19:35.655Z,100912.06
2018-02-10T13:22:01.668Z,100919.01
2018-02-10T13:24:27.537Z,100919.94
2018-02-10T13:26:53.363Z,100910.70
2018-02-10T13:29:19.541Z,100911.64
2018-02-10T13:31:45.314Z,100909.25
2018-02-10T13:34:11.232Z,100903.28
2018-02-10T13:36:37.136Z,100901.30
2018-02-10T13:39:02.938Z,100872.34
2018-02-10T13:41:28.734Z,100891.75
2018-02-10T13:43:54.547Z,100891.92
2018-02-10T13:46:20.362Z,100892.61
2018-02-10T13:48:46.144Z,100887.69
2018-02-10T13:51:11.940Z,100889.77
2018-02-10T13:53:37.725Z,100885.58
2018-02-10T13:56:03.642Z,100885.13
2018-02-10T13:58:29.472Z,100882.80
2018-02-10T14:00:55.262Z,100882.64
2018-02-10T14:03:21.042Z,100877.08
2018-02-10T14:05:46.822Z,100873.98
2018-02-10T14:08:12.606Z,100866.92
2018-02-10T14:10:38.427Z,100865.58
2018-02-10T14:13:04.198Z,100865.62
2018-02-10T14:15:29.984Z,100863.48
2018-02-10T14:17:55.770Z,100859.35
2018-02-10T14:20:21.545Z,100857.42
2018-02-10T14:22:47.334Z,100860.31
2018-02-10T14:25:13.110Z,100862.55
2018-02-10T14:27:38.906Z,100856.83
2018-02-10T14:30:05.019Z,100856.23
2018-02-10T14:32:30.790Z,100856.02
2018-02-10T14:34:56.562Z,100850.05
2018-02-10T14:37:22.365Z,100853.19
2018-02-10T14:39:48.138Z,100851.38
2018-02-10T14:42:13.930Z,100855.31
2018-02-10T14:44:39.715Z,100852.48
2018-02-10T14:47:05.806Z,100855.73
2018-02-10T14:49:31.602Z,100843.13
2018-02-10T14:51:57.437Z,100841.96
2018-02-10T14:54:23.551Z,100843.19
2018-02-10T14:56:49.343Z,100844.55
2018-02-10T14:59:15.126Z,100841.31
2018-02-10T15:01:41.029Z,100833.52
2018-02-10T15:04:06.806Z,100844.76
2018-02-10T15:06:32.655Z,100841.80
2018-02-10T15:08:58.446Z,100840.31
2018-02-10T15:11:24.311Z,100834.73
2018-02-10T15:13:50.087Z,100829.47
2018-02-10T15:16:16.143Z,100828.51
2018-02-10T15:18:41.935Z,100820.30
2018-02-10T15:21:07.776Z,100822.20
2018-02-10T15:23:33.623Z,100812.41
2018-02-10T15:25:59.448Z,100808.14
2018-02-10T15:28:25.227Z,100809.91
2018-02-10T15:31:03.374Z,100802.12
2018-02-10T15:33:41.733Z,100813.16
2018-02-10T15:36:07.732Z,100805.07
2018-02-10T15:38:33.504Z,100811.53
2018-02-10T15:40:59.408Z,100800.19
2018-02-10T15:43:25.540Z,100801.83
2018-02-10T15:45:51.421Z,100799.03
2018-02-10T15:48:17.217Z,100797.23
2018-02-10T15:50:43.131Z,100803.50
2018-02-10T15:53:09.199Z,100817.59
2018-02-10T15:55:34.973Z,100818.27
2018-02-10T15:58:00.766Z,100827.66
2018-02-10T16:00:26.571Z,100807.69
2018-02-10T16:02:54.102Z,100822.91
2018-02-10T16:05:19.907Z,100820.66
2018-02-10T16:07:45.689Z,100825.89
2018-02-10T16:10:11.475Z,100822.34
2018-02-10T16:12:37.357Z,100822.34
2018-02-10T16:15:03.143Z,100817.95
2018-02-10T16:17:28.915Z,100792.32
2018-02-10T16:19:54.842Z,100804.83
2018-02-10T16:22:20.696Z,100799.11
2018-02-10T16:24:46.490Z,100790.55
2018-02-10T16:27:12.678Z,100793.98
2018-02-10T16:29:38.418Z,100778.63
2018-02-10T16:32:04.196Z,100783.58
2018-02-10T16:34:29.983Z,100779.91
2018-02-10T16:36:55.766Z,100771.31
2018-02-10T16:39:21.611Z,100777.72
2018-02-10T16:41:47.406Z,100777.60
2018-02-10T16:44:13.192Z,100770.61
2018-02-10T16:46:38.978Z,100774.74
2018-02-10T16:49:05.062Z,100776.94
2018-02-10T16:51:30.854Z,100775.76
2018-02-10T16:53:56.640Z,100768.56
2018-02-10T16:56:22.584Z,100781.22
2018-02-10T16:58:48.371Z,100775.83
2018-02-10T17:01:14.214Z,100775.45
2018-02-10T17:03:40.030Z,100777.13
2018-02-10T17:06:05.822Z,100774.06
2018-02-10T17:08:31.600Z,100770.57
2018-02-10T17:10:57.386Z,100773.52
2018-02-10T17:13:23.164Z,100769.27
2018-02-10T17:15:48.962Z,100761.06
2018-02-10T17:18:14.865Z,100755.58
2018-02-10T17:20:40.709Z,100756.09
2018-02-10T17:23:06.884Z,100757.83
2018-02-10T17:25:32.709Z,100763.72
2018-02-10T17:27:58.507Z,100761.08
2018-02-10T17:30:24.275Z,100755.02
2018-02-10T17:32:50.244Z,100762.59
2018-02-10T17:35:16.069Z,100754.30
2018-02-10T17:37:41.882Z,100749.37
2018-02-10T17:40:07.684Z,100747.67
2018-02-10T17:42:33.476Z,100751.95
2018-02-10T17:44:59.263Z,100753.98
2018-02-10T17:47:25.330Z,100754.85
2018-02-10T17:49:51.154Z,100754.66
2018-02-10T17:52:16.933Z,100756.83
2018-02-10T17:54:42.747Z,100760.30
2018-02-10T17:57:08.551Z,100760.91
2018-02-10T17:59:34.400Z,100749.94
2018-02-10T18:02:00.214Z,100749.47
2018-02-10T18:04:26.003Z,100743.48
2018-02-10T18:06:51.777Z,100742.18
2018-02-10T18:09:17.571Z,100749.53
2018-02-10T18:11:43.338Z,100749.72
2018-02-10T18:14:09.121Z,100753.94
2018-02-10T18:16:34.910Z,100750.91
2018-02-10T18:19:00.701Z,100746.63
2018-02-10T18:21:26.483Z,100745.67
2018-02-10T18:23:52.346Z,100753.50
2018-02-10T18:26:18.134Z,100744.54
2018-02-10T18:28:43.918Z,100735.22
2018-02-10T18:31:10.180Z,100734.02
2018-02-10T18:33:36.014Z,100726.06
2018-02-10T18:36:01.911Z,100724.25
2018-02-10T18:38:27.770Z,100719.06
2018-02-10T18:40:53.575Z,100708.92
2018-02-10T18:43:19.573Z,100705.89
2018-02-10T18:45:46.604Z,100709.03
2018-02-10T18:48:12.479Z,100706.16
2018-02-10T18:50:38.290Z,100700.71
2018-02-10T18:53:04.072Z,100696.70
2018-02-10T18:55:30.122Z,100705.16
2018-02-10T18:57:56.531Z,100705.22
2018-02-10T19:00:22.653Z,100699.80
2018-02-10T19:02:48.444Z,100703.84
2018-02-10T19:05:14.552Z,100698.71
2018-02-10T19:07:40.369Z,100699.03
2018-02-10T19:10:06.449Z,100706.28
2018-02-10T19:12:32.343Z,100701.02
2018-02-10T19:14:58.175Z,100697.38
2018-02-10T19:17:23.953Z,100689.58
2018-02-10T19:19:49.767Z,100704.36
2018-02-10T19:22:15.886Z,100700.69
2018-02-10T19:24:41.671Z,100700.75
2018-02-10T19:27:07.672Z,100695.94
2018-02-10T19:29:33.506Z,100681.33
2018-02-10T19:31:59.287Z,100685.11
2018-02-10T19:34:25.097Z,100669.02
2018-02-10T19:36:50.887Z,100667.16
2018-02-10T19:39:17.219Z,100662.27
2018-02-10T19:41:43.490Z,100661.41
2018-02-10T19:44:09.604Z,100655.78
2018-02-10T19:46:35.633Z,100646.92
2018-02-10T19:49:02.020Z,100651.38
2018-02-10T19:51:28.145Z,100653.68
2018-02-10T19:53:54.619Z,100640.58
2018-02-10T19:56:20.578Z,100633.53
2018-02-10T19:58:46.890Z,100630.54
2018-02-10T20:01:12.918Z,100635.43
2018-02-10T20:03:39.455Z,100628.70
2018-02-10T20:06:05.246Z,100634.76
2018-02-10T20:08:31.377Z,100622.82
2018-02-10T20:10:57.782Z,100620.52
2018-02-10T20:13:23.860Z,100614.45
2018-02-10T20:15:49.798Z,100623.84
2018-02-10T20:18:16.243Z,100621.23
2018-02-10T20:20:42.382Z,100623.92
2018-02-10T20:23:08.511Z,100618.70
2018-02-10T20:25:34.689Z,100614.25
2018-02-10T20:28:00.612Z,100600.80
2018-02-10T20:30:26.555Z,100602.53
2018-02-10T20:32:53.214Z,100588.99
2018-02-10T20:35:19.130Z,100589.14
2018-02-10T20:37:45.219Z,100594.61
2018-02-10T20:40:11.458Z,100595.11
2018-02-10T20:42:37.242Z,100592.05
2018-02-10T20:45:03.106Z,100587.53
2018-02-10T20:47:29.013Z,100591.02
2018-02-10T20:49:54.797Z,100590.50
2018-02-10T20:52:20.565Z,100583.88
2018-02-10T20:54:47.091Z,100580.47
2018-02-10T20:57:12.878Z,100573.98
2018-02-10T20:59:38.692Z,100580.17
2018-02-10T21:02:04.515Z,100571.95
2018-02-10T21:04:30.350Z,100579.08
2018-02-10T21:06:56.152Z,100566.48
2018-02-10T21:09:21.966Z,100558.55
2018-02-10T21:11:47.751Z,100557.11
2018-02-10T21:14:13.564Z,100544.95
2018-02-10T21:16:39.346Z,100536.44
2018-02-10T21:19:05.269Z,100540.45
2018-02-10T21:21:31.058Z,100538.23
2018-02-10T21:23:56.834Z,100532.69
2018-02-10T21:26:22.635Z,100529.16
2018-02-10T21:28:48.446Z,100526.86
2018-02-10T21:31:14.227Z,100531.20
2018-02-10T21:33:40.022Z,100523.65
2018-02-10T21:36:05.816Z,100522.59
2018-02-10T21:38:31.625Z,100521.94
2018-02-10T21:40:57.418Z,100520.88
2018-02-10T21:43:23.440Z,100520.03
2018-02-10T21:45:49.218Z,100522.80
2018-02-10T21:48:14.999Z,100531.44
2018-02-10T21:50:40.779Z,100529.98
2018-02-10T21:53:06.584Z,100532.32
2018-02-10T21:55:32.377Z,100534.38
2018-02-10T21:57:58.172Z,100531.97
2018-02-10T22:00:23.992Z,100527.29
2018-02-10T22:02:49.782Z,100518.06
2018-02-10T22:05:17.681Z,100506.84
2018-02-10T22:07:43.894Z,100499.56
2018-02-10T22:10:09.750Z,100497.44
2018-02-10T22:12:35.988Z,100495.22
2018-02-10T22:15:01.773Z,100490.66
2018-02-10T22:17:27.969Z,100479.32
2018-02-10T22:19:53.749Z,100471.55
2018-02-10T22:22:19.517Z,100465.97
2018-02-10T22:24:45.374Z,100465.97
2018-02-10T22:27:11.150Z,100467.25
2018-02-10T22:29:37.888Z,100461.42
2018-02-10T22:32:03.687Z,100465.81
2018-02-10T22:34:29.938Z,100467.82
2018-02-10T22:36:55.717Z,100460.02
2018-02-10T22:39:21.862Z,100462.65
2018-02-10T22:41:47.693Z,100458.50
2018-02-10T22:44:14.663Z,100456.81
2018-02-10T22:46:40.434Z,100452.77
2018-02-10T22:49:06.377Z,100461.83
2018-02-10T22:51:32.195Z,100450.84
2018-02-10T22:53:58.622Z,100446.21
2018-02-10T22:56:24.446Z,100446.55
2018-02-10T22:58:50.958Z,100448.48
2018-02-10T23:01:16.753Z,100445.30
2018-02-10T23:03:43.513Z,100440.32
2018-02-10T23:06:09.307Z,100442.05
2018-02-10T23:08:35.681Z,100436.10
2018-02-10T23:11:01.462Z,100431.00
2018-02-10T23:13:27.252Z,100422.70
2018-02-10T23:15:53.033Z,100420.59
2018-02-10T23:18:18.869Z,100413.22
2018-02-10T23:20:44.660Z,100401.73
2018-02-10T23:23:12.748Z,100399.32
2018-02-10T23:25:38.560Z,100396.52
2018-02-10T23:28:04.717Z,100387.56
2018-02-10T23:30:30.693Z,100379.73
2018-02-10T23:32:56.771Z,100375.38
2018-02-10T23:35:29.834Z,100367.55
2018-02-10T23:37:55.631Z,100355.23
2018-02-10T23:40:21.646Z,100349.44
2018-02-10T23:42:47.458Z,100347.28
2018-02-10T23:45:13.707Z,100338.69
2018-02-10T23:47:39.494Z,100340.32
2018-02-10T23:50:05.818Z,100329.80
2018-02-10T23:52:31.585Z,100333.64
2018-02-10T23:54:57.781Z,100319.94
2018-02-10T23:57:23.575Z,100319.07
2018-02-10T23:59:49.538Z,100312.05
